createdAt,value
2022-08-10T00:01:54.021Z,14.97
2022-08-10T00:04:22.658Z,14.92
2022-08-10T00:06:53.835Z,14.86
2022-08-10T00:09:22.498Z,14.88
2022-08-10T00:11:49.434Z,14.80
2022-08-10T00:14:16.073Z,14.87
2022-08-10T00:16:42.605Z,14.83
2022-08-10T00:19:09.854Z,14.91
2022-08-10T00:21:36.665Z,14.78
2022-08-10T00:24:03.691Z,14.73
2022-08-10T00:27:49.982Z,14.71
2022-08-10T00:29:16.881Z,14.71
2022-08-10T00:31:58.537Z,14.72
2022-08-10T00:34:27.294Z,14.70
2022-08-10T00:36:53.914Z,14.75
2022-08-10T00:39:20.471Z,14.71
2022-08-10T00:41:47.280Z,14.65
2022-08-10T00:44:40.098Z,14.74
2022-08-10T00:47:07.296Z,14.59
2022-08-10T00:49:45.777Z,14.62
2022-08-10T00:52:13.907Z,14.60
2022-08-10T00:54:42.578Z,14.58
2022-08-10T00:57:16.416Z,14.63
2022-08-10T00:59:58.668Z,14.58
2022-08-10T01:02:28.841Z,14.56
2022-08-10T01:05:00.731Z,14.53
2022-08-10T01:07:58.988Z,14.51
2022-08-10T01:10:38.840Z,14.50
2022-08-10T01:13:15.924Z,14.57
2022-08-10T01:16:08.493Z,14.47
2022-08-10T01:18:53.910Z,14.44
2022-08-10T01:21:53.890Z,14.47
2022-08-10T01:24:39.681Z,14.44
2022-08-10T01:27:27.394Z,14.36
2022-08-10T01:30:04.754Z,14.36
2022-08-10T01:32:50.949Z,14.48
2022-08-10T01:35:24.812Z,14.38
2022-08-10T01:38:11.501Z,14.36
2022-08-10T01:40:42.354Z,14.28
2022-08-10T01:43:10.145Z,14.28
2022-08-10T01:45:44.563Z,14.33
2022-08-10T01:48:44.292Z,14.32
2022-08-10T01:51:25.401Z,14.36
2022-08-10T01:54:00.732Z,14.46
2022-08-10T01:56:33.104Z,14.45
2022-08-10T01:59:03.293Z,14.56
2022-08-10T02:01:34.258Z,14.51
2022-08-10T02:04:06.137Z,14.56
2022-08-10T02:06:37.659Z,14.58
2022-08-10T02:09:07.287Z,14.65
2022-08-10T02:12:05.844Z,14.68
2022-08-10T02:14:33.906Z,14.63
2022-08-10T02:17:05.565Z,14.64
2022-08-10T02:19:35.616Z,14.61
2022-08-10T02:22:37.637Z,14.62
2022-08-10T02:24:50.097Z,14.68
2022-08-10T02:27:16.768Z,14.55
2022-08-10T02:29:44.143Z,14.45
2022-08-10T02:32:28.914Z,14.48
2022-08-10T02:35:03.610Z,14.41
2022-08-10T02:37:30.904Z,14.35
2022-08-10T02:39:57.408Z,14.38
2022-08-10T02:45:25.519Z,14.42
2022-08-10T02:45:31.035Z,14.41
2022-08-10T02:48:16.903Z,14.36
2022-08-10T02:50:43.666Z,14.41
2022-08-10T02:53:55.430Z,14.41
2022-08-10T02:56:23.836Z,14.38
2022-08-10T02:58:55.832Z,14.34
2022-08-10T03:01:25.944Z,14.32
2022-08-10T03:04:05.220Z,14.31
2022-08-10T03:06:37.885Z,14.31
2022-08-10T03:09:07.841Z,14.24
2022-08-10T03:12:35.314Z,14.20
2022-08-10T03:14:23.433Z,14.21
2022-08-10T03:16:51.329Z,14.21
2022-08-10T03:20:34.367Z,14.21
2022-08-10T03:22:07.685Z,14.28
2022-08-10T03:24:35.065Z,14.28
2022-08-10T03:27:01.839Z,14.24
2022-08-10T03:29:28.716Z,14.16
2022-08-10T03:31:55.622Z,14.21
2022-08-10T03:34:33.504Z,14.22
2022-08-10T03:37:00.683Z,14.29
2022-08-10T03:39:27.597Z,14.26
2022-08-10T03:41:56.293Z,14.24
2022-08-10T03:44:28.908Z,14.34
2022-08-10T03:46:56.007Z,14.32
2022-08-10T03:49:23.948Z,14.32
2022-08-10T03:51:51.556Z,14.41
2022-08-10T03:54:19.066Z,14.41
2022-08-10T03:56:46.289Z,14.40
2022-08-10T03:59:14.923Z,14.44
2022-08-10T04:02:45.982Z,14.46
2022-08-10T04:04:29.600Z,14.48
2022-08-10T04:06:58.404Z,14.55
2022-08-10T04:09:54.731Z,14.55
2022-08-10T04:12:19.945Z,14.47
2022-08-10T04:14:51.159Z,14.45
2022-08-10T04:18:04.088Z,14.51
2022-08-10T04:20:17.146Z,14.60
2022-08-10T04:22:45.110Z,14.64
2022-08-10T04:25:13.281Z,14.78
2022-08-10T04:27:39.988Z,14.86
2022-08-10T04:30:07.148Z,14.96
2022-08-10T04:32:34.727Z,14.96
2022-08-10T04:35:03.255Z,15.00
2022-08-10T04:37:30.546Z,14.96
2022-08-10T04:39:57.465Z,14.93
2022-08-10T04:42:24.456Z,14.95
2022-08-10T04:44:51.057Z,14.94
2022-08-10T04:47:57.233Z,15.05
2022-08-10T04:50:04.730Z,15.16
2022-08-10T04:52:31.592Z,15.26
2022-08-10T04:54:58.089Z,15.33
2022-08-10T04:57:24.698Z,15.39
2022-08-10T04:59:51.239Z,15.51
2022-08-10T05:02:29.351Z,15.58
2022-08-10T05:04:57.575Z,15.61
2022-08-10T05:07:24.349Z,15.63
2022-08-10T05:10:02.511Z,15.65
2022-08-10T05:12:36.315Z,15.78
2022-08-10T05:15:11.892Z,15.84
2022-08-10T05:17:39.670Z,15.96
2022-08-10T05:20:08.379Z,15.97
2022-08-10T05:22:45.529Z,16.00
2022-08-10T05:25:14.307Z,16.11
2022-08-10T05:27:42.322Z,16.22
2022-08-10T05:30:11.599Z,16.30
2022-08-10T05:32:56.780Z,16.43
2022-08-10T05:35:24.745Z,16.51
2022-08-10T05:38:13.430Z,16.64
2022-08-10T05:40:40.936Z,16.71
2022-08-10T05:43:09.483Z,16.85
2022-08-10T05:46:17.398Z,16.94
2022-08-10T05:48:57.587Z,17.11
2022-08-10T05:51:09.854Z,17.26
2022-08-10T05:54:01.984Z,17.39
2022-08-10T05:56:25.260Z,17.45
2022-08-10T05:58:51.777Z,17.73
2022-08-10T06:01:19.098Z,17.95
2022-08-10T06:03:54.175Z,18.14
2022-08-10T06:06:24.819Z,18.98
2022-08-10T06:08:53.632Z,20.51
2022-08-10T06:12:26.364Z,22.00
2022-08-10T06:14:28.336Z,23.33
2022-08-10T06:16:56.091Z,24.52
2022-08-10T06:19:22.779Z,25.37
2022-08-10T06:22:00.814Z,25.99
2022-08-10T06:24:30.833Z,26.39
2022-08-10T06:26:58.042Z,27.19
2022-08-10T06:29:24.906Z,27.69
2022-08-10T06:31:53.511Z,27.91
2022-08-10T06:34:36.181Z,28.26
2022-08-10T06:37:04.681Z,28.93
2022-08-10T06:39:34.481Z,29.62
2022-08-10T06:42:18.340Z,30.24
2022-08-10T06:44:53.294Z,31.22
2022-08-10T06:47:22.851Z,31.25
2022-08-10T06:49:53.111Z,31.28
2022-08-10T06:52:20.412Z,31.29
2022-08-10T06:54:47.475Z,32.10
2022-08-10T06:57:18.664Z,33.16
2022-08-10T06:59:46.426Z,33.79
2022-08-10T07:02:20.997Z,33.62
2022-08-10T07:04:59.692Z,33.78
2022-08-10T07:07:28.086Z,34.81
2022-08-10T07:09:55.737Z,35.41
2022-08-10T07:12:24.017Z,34.22
2022-08-10T07:14:51.572Z,34.87
2022-08-10T07:17:21.176Z,34.63
2022-08-10T07:19:52.180Z,34.15
2022-08-10T07:23:05.833Z,34.29
2022-08-10T07:25:11.419Z,34.55
2022-08-10T07:27:59.639Z,34.97
2022-08-10T07:30:28.477Z,35.50
2022-08-10T07:32:55.661Z,35.01
2022-08-10T07:35:23.441Z,34.40
2022-08-10T07:37:52.347Z,33.95
2022-08-10T07:40:20.694Z,34.59
2022-08-10T07:42:49.502Z,33.66
2022-08-10T07:45:16.195Z,32.71
2022-08-10T07:48:06.725Z,33.18
2022-08-10T07:50:36.839Z,31.07
2022-08-10T07:53:04.462Z,30.44
2022-08-10T07:56:05.363Z,30.43
2022-08-10T07:58:22.654Z,29.13
2022-08-10T08:00:50.995Z,28.41
2022-08-10T08:03:21.244Z,28.64
2022-08-10T08:05:58.514Z,27.49
2022-08-10T08:08:30.822Z,27.22
2022-08-10T08:10:58.337Z,27.10
2022-08-10T08:13:25.317Z,26.69
2022-08-10T08:16:18.269Z,26.23
2022-08-10T08:18:45.770Z,26.26
2022-08-10T08:24:10.889Z,26.17
2022-08-10T08:24:31.531Z,26.24
2022-08-10T08:27:01.470Z,26.01
2022-08-10T08:29:28.473Z,25.79
2022-08-10T08:32:02.547Z,25.74
2022-08-10T08:34:34.202Z,25.15
2022-08-10T08:37:01.301Z,24.58
2022-08-10T08:39:28.486Z,25.03
2022-08-10T08:42:15.647Z,24.86
2022-08-10T08:45:06.237Z,24.84
2022-08-10T08:48:10.193Z,24.40
2022-08-10T08:50:59.585Z,24.25
2022-08-10T08:54:01.793Z,24.57
2022-08-10T08:56:50.169Z,24.95
2022-08-10T08:59:38.731Z,25.22
2022-08-10T09:02:18.369Z,25.23
2022-08-10T09:05:26.911Z,25.57
2022-08-10T09:08:01.577Z,25.63
2022-08-10T09:10:46.138Z,25.57
2022-08-10T09:13:41.854Z,25.67
2022-08-10T09:16:17.390Z,25.93
2022-08-10T09:19:01.610Z,25.59
2022-08-10T09:22:13.395Z,24.87
2022-08-10T09:24:56.667Z,24.51
2022-08-10T09:27:29.678Z,24.54
2022-08-10T09:30:05.020Z,24.93
2022-08-10T09:36:16.527Z,24.97
2022-08-10T09:36:22.450Z,24.52
2022-08-10T09:39:05.713Z,24.63
2022-08-10T09:41:47.223Z,24.62
2022-08-10T09:44:24.165Z,24.48
2022-08-10T09:47:05.978Z,24.41
2022-08-10T09:50:00.873Z,24.69
2022-08-10T09:52:59.400Z,24.43
2022-08-10T09:56:19.336Z,24.13
2022-08-10T09:59:26.838Z,24.05
2022-08-10T10:02:02.690Z,24.28
2022-08-10T10:04:43.147Z,24.60
2022-08-10T10:07:14.481Z,24.84
2022-08-10T10:10:03.858Z,24.99
2022-08-10T10:12:57.457Z,24.97
2022-08-10T10:15:51.415Z,24.88
2022-08-10T10:18:31.268Z,24.87
2022-08-10T10:21:06.012Z,24.89
2022-08-10T10:24:22.324Z,25.01
2022-08-10T10:27:16.326Z,25.01
2022-08-10T10:30:11.949Z,24.73
2022-08-10T10:32:45.389Z,24.39
2022-08-10T10:35:24.879Z,24.32
2022-08-10T10:38:10.412Z,24.02
2022-08-10T10:41:03.923Z,23.71
2022-08-10T10:43:36.616Z,23.76
2022-08-10T10:46:23.341Z,23.95
2022-08-10T10:49:01.125Z,23.90
2022-08-10T10:51:35.130Z,23.84
2022-08-10T10:54:09.261Z,24.05
2022-08-10T10:56:43.715Z,24.15
2022-08-10T10:59:55.162Z,24.44
2022-08-10T11:02:38.630Z,24.38
2022-08-10T11:05:17.835Z,24.20
2022-08-10T11:07:55.639Z,24.40
2022-08-10T11:10:33.170Z,24.46
2022-08-10T11:14:27.427Z,24.61
2022-08-10T11:16:49.156Z,24.66
2022-08-10T11:19:24.029Z,24.37
2022-08-10T11:22:07.999Z,24.56
2022-08-10T11:24:57.796Z,24.21
2022-08-10T11:27:43.450Z,24.18
2022-08-10T11:30:13.393Z,24.51
2022-08-10T11:32:48.708Z,25.01
2022-08-10T11:35:30.466Z,24.99
2022-08-10T11:38:34.538Z,24.95
2022-08-10T11:42:12.552Z,24.78
2022-08-10T11:44:40.600Z,24.69
2022-08-10T11:47:12.650Z,24.36
2022-08-10T11:49:47.748Z,23.80
2022-08-10T11:52:20.075Z,23.64
2022-08-10T11:54:52.014Z,23.65
2022-08-10T11:57:19.116Z,23.44
2022-08-10T11:59:58.206Z,23.57
2022-08-10T12:02:50.362Z,23.95
2022-08-10T12:05:48.317Z,23.94
2022-08-10T12:10:07.419Z,24.21
2022-08-10T12:11:07.239Z,24.41
2022-08-10T12:13:53.880Z,24.42
2022-08-10T12:16:30.072Z,24.64
2022-08-10T12:19:02.575Z,24.73
2022-08-10T12:21:38.323Z,24.94
2022-08-10T12:24:20.267Z,25.16
2022-08-10T12:27:00.400Z,24.96
2022-08-10T12:29:43.476Z,25.04
2022-08-10T12:32:29.351Z,25.45
2022-08-10T12:35:26.103Z,25.74
2022-08-10T12:38:08.672Z,25.97
2022-08-10T12:40:47.428Z,26.17
2022-08-10T12:44:06.362Z,25.73
2022-08-10T12:46:59.891Z,25.30
2022-08-10T12:49:37.628Z,25.24
2022-08-10T12:52:16.703Z,25.32
2022-08-10T12:54:43.752Z,25.02
2022-08-10T12:57:12.621Z,24.51
2022-08-10T12:59:43.782Z,23.99
2022-08-10T13:02:14.821Z,23.84
2022-08-10T13:04:42.750Z,23.88
2022-08-10T13:07:09.482Z,23.72
2022-08-10T13:09:55.813Z,23.69
2022-08-10T13:12:36.917Z,23.57
2022-08-10T13:15:45.424Z,23.47
2022-08-10T13:18:05.312Z,23.37
2022-08-10T13:20:37.073Z,23.36
2022-08-10T13:23:11.497Z,23.13
2022-08-10T13:25:40.972Z,23.18
2022-08-10T13:28:36.018Z,23.37
2022-08-10T13:30:57.687Z,24.07
2022-08-10T13:34:39.683Z,24.82
2022-08-10T13:36:15.215Z,25.30
2022-08-10T13:38:43.937Z,25.55
2022-08-10T13:41:11.405Z,25.45
2022-08-10T13:43:51.080Z,25.69
2022-08-10T13:46:22.525Z,26.04
2022-08-10T13:48:53.511Z,26.03
2022-08-10T13:51:56.494Z,25.88
2022-08-10T13:54:14.016Z,26.25
2022-08-10T13:56:44.813Z,26.39
2022-08-10T13:59:13.113Z,26.48
2022-08-10T14:01:50.802Z,26.77
2022-08-10T14:04:18.839Z,26.66
2022-08-10T14:06:55.714Z,26.98
2022-08-10T14:09:30.570Z,27.08
2022-08-10T14:11:57.927Z,27.05
2022-08-10T14:14:26.436Z,26.45
2022-08-10T14:16:53.951Z,25.87
2022-08-10T14:19:26.040Z,25.46
2022-08-10T14:21:54.275Z,25.23
2022-08-10T14:24:28.240Z,25.31
2022-08-10T14:27:15.268Z,25.09
2022-08-10T14:29:43.864Z,25.09
2022-08-10T14:32:11.912Z,24.83
2022-08-10T14:34:59.535Z,24.70
2022-08-10T14:37:38.206Z,24.57
2022-08-10T14:40:23.001Z,24.48
2022-08-10T14:42:53.081Z,24.29
2022-08-10T14:45:29.640Z,24.29
2022-08-10T14:48:06.646Z,24.21
2022-08-10T14:50:35.322Z,23.96
2022-08-10T14:53:09.407Z,23.99
2022-08-10T14:55:58.520Z,23.99
2022-08-10T14:58:31.753Z,23.99
2022-08-10T15:00:59.182Z,23.87
2022-08-10T15:04:00.768Z,23.90
2022-08-10T15:06:21.193Z,24.12
2022-08-10T15:09:12.554Z,24.29
2022-08-10T15:12:14.225Z,24.99
2022-08-10T15:14:43.138Z,25.31
2022-08-10T15:17:26.340Z,25.41
2022-08-10T15:20:13.718Z,25.39
2022-08-10T15:22:46.507Z,25.26
2022-08-10T15:25:18.829Z,24.77
2022-08-10T15:27:55.063Z,24.65
2022-08-10T15:30:29.466Z,24.32
2022-08-10T15:33:21.674Z,24.25
2022-08-10T15:36:24.986Z,24.06
2022-08-10T15:39:00.562Z,24.07
2022-08-10T15:41:58.434Z,23.87
2022-08-10T15:44:41.189Z,23.70
2022-08-10T15:47:46.284Z,23.57
2022-08-10T15:50:24.245Z,23.33
2022-08-10T15:53:00.583Z,23.37
2022-08-10T15:55:42.622Z,23.34
2022-08-10T15:58:37.621Z,23.38
2022-08-10T16:02:14.287Z,23.43
2022-08-10T16:04:14.560Z,23.43
2022-08-10T16:06:49.286Z,23.32
2022-08-10T16:10:22.411Z,23.30
2022-08-10T16:12:16.097Z,23.18
2022-08-10T16:14:46.453Z,23.15
2022-08-10T16:17:14.247Z,23.06
2022-08-10T16:19:52.441Z,23.07
2022-08-10T16:22:35.853Z,23.05
2022-08-10T16:25:12.008Z,23.04
2022-08-10T16:27:39.284Z,23.09
2022-08-10T16:30:06.524Z,23.26
2022-08-10T16:32:34.521Z,23.50
2022-08-10T16:35:04.604Z,23.64
2022-08-10T16:37:58.857Z,23.81
2022-08-10T16:40:26.592Z,23.87
2022-08-10T16:42:53.485Z,23.65
2022-08-10T16:45:24.352Z,23.43
2022-08-10T16:47:52.984Z,23.49
2022-08-10T16:50:27.087Z,23.55
2022-08-10T16:52:54.575Z,23.57
2022-08-10T16:55:48.359Z,23.61
2022-08-10T16:58:22.393Z,23.67
2022-08-10T17:00:50.304Z,23.62
2022-08-10T17:03:22.444Z,23.62
2022-08-10T17:06:11.937Z,23.55
2022-08-10T17:08:48.526Z,23.48
2022-08-10T17:11:17.244Z,23.45
2022-08-10T17:13:43.822Z,23.39
2022-08-10T17:16:11.764Z,23.41
2022-08-10T17:18:41.383Z,23.36
2022-08-10T17:21:21.514Z,23.30
2022-08-10T17:23:53.284Z,23.20
2022-08-10T17:26:36.094Z,23.14
2022-08-10T17:29:50.532Z,23.11
2022-08-10T17:32:06.210Z,23.03
2022-08-10T17:34:37.294Z,22.76
2022-08-10T17:37:06.042Z,22.73
2022-08-10T17:39:41.040Z,22.64
2022-08-10T17:42:07.981Z,22.53
2022-08-10T17:44:37.067Z,22.45
2022-08-10T17:47:10.788Z,22.32
2022-08-10T17:49:38.870Z,22.27
2022-08-10T17:52:08.166Z,22.14
2022-08-10T17:54:39.446Z,21.96
2022-08-10T17:57:15.343Z,21.85
2022-08-10T17:59:43.368Z,21.73
2022-08-10T18:02:12.145Z,21.61
2022-08-10T18:04:41.892Z,21.48
2022-08-10T18:07:10.449Z,21.40
2022-08-10T18:09:42.697Z,21.24
2022-08-10T18:12:18.033Z,21.11
2022-08-10T18:14:47.743Z,20.92
2022-08-10T18:17:18.676Z,20.89
2022-08-10T18:19:47.530Z,20.76
2022-08-10T18:22:16.438Z,20.64
2022-08-10T18:24:44.570Z,20.50
2022-08-10T18:27:13.328Z,20.33
2022-08-10T18:29:42.581Z,20.26
2022-08-10T18:32:10.057Z,20.02
2022-08-10T18:34:38.493Z,19.94
2022-08-10T18:37:08.192Z,19.84
2022-08-10T18:39:39.490Z,19.86
2022-08-10T18:42:15.350Z,19.72
2022-08-10T18:44:52.581Z,19.68
2022-08-10T18:47:32.992Z,19.63
2022-08-10T18:50:02.307Z,19.52
2022-08-10T18:52:33.017Z,19.42
2022-08-10T18:55:23.222Z,19.36
2022-08-10T18:58:09.729Z,19.32
2022-08-10T19:00:51.834Z,19.25
2022-08-10T19:03:54.118Z,19.19
2022-08-10T19:06:42.725Z,19.18
2022-08-10T19:09:48.860Z,19.04
2022-08-10T19:12:49.681Z,18.91
2022-08-10T19:15:19.222Z,18.83
2022-08-10T19:18:11.102Z,18.75
2022-08-10T19:21:03.210Z,18.65
2022-08-10T19:23:29.811Z,18.64
2022-08-10T19:26:42.782Z,18.54
2022-08-10T19:29:01.522Z,18.63
2022-08-10T19:31:44.469Z,18.56
2022-08-10T19:34:24.453Z,18.48
2022-08-10T19:37:15.362Z,18.43
2022-08-10T19:39:56.791Z,18.35
2022-08-10T19:42:31.923Z,18.42
2022-08-10T19:45:01.707Z,18.35
2022-08-10T19:47:52.718Z,18.31
2022-08-10T19:50:24.268Z,18.30
2022-08-10T19:53:14.750Z,18.24
2022-08-10T19:55:50.873Z,18.16
2022-08-10T19:58:20.993Z,18.17
2022-08-10T20:01:02.389Z,18.07
2022-08-10T20:03:45.733Z,18.06
2022-08-10T20:06:44.502Z,18.06
2022-08-10T20:09:18.372Z,18.02
2022-08-10T20:12:05.152Z,17.92
2022-08-10T20:14:36.747Z,17.93
2022-08-10T20:17:10.980Z,17.89
2022-08-10T20:20:00.449Z,17.77
2022-08-10T20:22:34.483Z,17.84
2022-08-10T20:25:17.680Z,17.78
2022-08-10T20:28:00.318Z,17.77
2022-08-10T20:30:33.258Z,17.74
2022-08-10T20:33:11.125Z,17.63
2022-08-10T20:36:07.891Z,17.64
2022-08-10T20:38:47.212Z,17.55
2022-08-10T20:41:24.523Z,17.52
2022-08-10T20:44:15.130Z,17.48
2022-08-10T20:46:57.753Z,17.40
2022-08-10T20:49:39.455Z,17.32
2022-08-10T20:52:07.008Z,17.23
2022-08-10T20:54:58.264Z,17.20
2022-08-10T20:58:13.281Z,17.09
2022-08-10T21:00:42.796Z,17.04
2022-08-10T21:03:25.126Z,16.98
2022-08-10T21:06:04.381Z,16.95
2022-08-10T21:08:42.093Z,16.86
2022-08-10T21:11:14.807Z,16.85
2022-08-10T21:14:12.122Z,16.85
2022-08-10T21:17:27.763Z,16.80
2022-08-10T21:22:57.995Z,16.68
2022-08-10T21:25:41.834Z,16.75
2022-08-10T21:25:44.048Z,16.62
2022-08-10T21:28:29.210Z,16.61
2022-08-10T21:31:28.163Z,16.59
2022-08-10T21:34:31.671Z,16.50
2022-08-10T21:37:16.541Z,16.44
2022-08-10T21:40:35.152Z,16.38
2022-08-10T21:43:43.973Z,16.40
2022-08-10T21:46:37.864Z,16.31
2022-08-10T21:49:53.256Z,16.30
2022-08-10T21:52:53.667Z,16.19
2022-08-10T21:55:58.301Z,16.24
2022-08-10T21:58:51.020Z,16.17
2022-08-10T22:01:41.769Z,16.11
2022-08-10T22:04:28.888Z,16.04
2022-08-10T22:07:16.619Z,16.03
2022-08-10T22:10:03.985Z,16.01
2022-08-10T22:12:56.729Z,15.99
2022-08-10T22:16:09.743Z,15.95
2022-08-10T22:19:01.433Z,15.99
2022-08-10T22:22:27.404Z,15.97
2022-08-10T22:25:30.149Z,15.95
2022-08-10T22:28:18.494Z,15.94
2022-08-10T22:31:32.135Z,15.92
2022-08-10T22:34:48.361Z,15.90
2022-08-10T22:37:39.337Z,15.83
2022-08-10T22:40:34.336Z,15.86
2022-08-10T22:43:35.263Z,15.74
2022-08-10T22:46:34.576Z,15.76
2022-08-10T22:49:01.617Z,15.69
2022-08-10T22:51:43.298Z,15.62
2022-08-10T22:54:46.612Z,15.56
2022-08-10T22:57:33.394Z,15.56
2022-08-10T23:00:14.307Z,15.55
2022-08-10T23:02:47.672Z,15.42
2022-08-10T23:05:16.090Z,15.49
2022-08-10T23:07:47.605Z,15.47
2022-08-10T23:10:16.462Z,15.53
2022-08-10T23:13:00.232Z,15.53
2022-08-10T23:15:52.507Z,15.51
2022-08-10T23:18:45.867Z,15.53
2022-08-10T23:21:13.822Z,15.44
2022-08-10T23:23:41.236Z,15.42
2022-08-10T23:26:08.399Z,15.35
2022-08-10T23:29:04.227Z,15.42
2022-08-10T23:32:01.103Z,15.39
2022-08-10T23:34:15.374Z,15.38
2022-08-10T23:36:42.293Z,15.48
2022-08-10T23:39:26.212Z,15.38
2022-08-10T23:41:57.165Z,15.31
2022-08-10T23:44:24.721Z,15.31
2022-08-10T23:46:51.581Z,15.31
2022-08-10T23:49:19.123Z,15.32
2022-08-10T23:51:55.698Z,15.30
2022-08-10T23:54:24.392Z,15.31
2022-08-10T23:56:52.639Z,15.24
2022-08-10T23:59:24.362Z,15.25
